Aérodrome :
LOGIN :

S'inscrire | Disclaimer

   EN    FR    IT 

 










Légende :    VFR   VFR Marginal   IFR   IFR Intensif   IFR Très Intensif
Visi : 
Plafond : 
>= 8 km
>= 3000ft
5 à 8 km
1000 à 3000 ft
1500m à 5 km
500 à 1000 ft
800 à 1500m
200 à 500 ft
< 800m
< 200 ft
Symboles :   Orages  Brouillard  Fortes neiges  Fortes précipitations  Vent > 20 kt
SIGMETs :   Divers  Orages  Givrage  Turbulence  Onde Orograph.  Cendres Volcan.






- Altitude de l'aérodrome : 15 ft
- Code IATA : ZTH


LGZA - Dionysios Solomos

DERNIER METAR :
  • 111850Z 00000KT 9999 FEW020 19/14 Q1011

METARs EXPIRÉS :
  • 111750Z 00000KT 9999 FEW020 SCT070 19/14 Q1012
  • 111650Z 07004KT 9999 SCT020 BKN070 19/12 Q1012

TAF TAF LGZA
Valide du 11 à 18h jusqu'au 12 à 03h UTC


111700Z 1118/1203 12015G25KT 9999 SCT018 SCT070
TEMPO 1121/1203 11020G30KT BKN070



MET'MAP, la Météo Aéronautique d'un coup d'oeil ! - Copyright ORBIFLY Décembre 2007 - Disclaimer

ORBIFLY MET'MAP TEAM :

Programmation & Développement : Alexandra Zaïnal
Conception & Développement : Baudouin d'Aumeries
Co-Programmation & Développement : Marc-Olivier Méhu
Soutien technique & logistique : Manuel Goepfert

Contact : metmap@orbifly.com




SOURCES & CREDITS :

   NOAA